Delavan, WI (53115)

03:03 PM CST del 08 Febbraio 2016 (GMT -0600)
4th st | | Change Station
CLOSE
Current Station
Stazione meteo personale
Location: Delavan, WI
Altitudine: 938 ft
Stazioni meteo nelle vicinanze

Alt. 938 ft 42.63 °N, 88.64 °W | Updated 1 minute ago

Coperto
Coperto
26.8 °F
Sembra 23 °F
N
3.2
Vento Variabile Vento da Sud

Oggi
Massima -- | Minima -- °F
--% Possibilità di precip.
Ieri
Massima -- | Minima -- °F
Precip. -- in
Pressione 29.69 in
Visibilità 10.0 miglia
Nuvole Coperto 1800 ft
Raffreddamento del vento 23 °F
Punto di rugiada 21 °F
Umidità 78%
Piovosità 0.00 in
Spessore del manto nevoso Non disponibile.
7:01 AM 5:16 PM
Luna nuova, 0% visible
METAR KBUU 082055Z AUTO 30010KT 10SM OVC018 M04/M08 A2969 RMK AO2 T10421076
Pressione 29.69 in
Visibilità 10.0 miglia
Nuvole Coperto 1800 ft
Raffreddamento del vento 23 °F
Punto di rugiada 21 °F
Umidità 78%
Piovosità 0.00 in
Spessore del manto nevoso Non disponibile.
7:01 AM 5:16 PM
Luna nuova, 0% visible
METAR KBUU 082055Z AUTO 30010KT 10SM OVC018 M04/M08 A2969 RMK AO2 T10421076

10-Day Weather Forecast

Almanac

Astronomia

Feb. 08, 2016 Alba Tramonto
Ora attuale
Crepuscolo civile
Crepuscolo nautico
Crepuscolo astronomico
Luna
Estensione della luce visibile
Lunghezza del giorno
Tomorrow will be .
, % of the Moon is Illuminated

Gli estremi di oggi

State Highs State Lows

Community

WunderPhotos

Upload Photos

1,891,514 foto caricate!

WunderBlog® & News

Nearby

Qualità dell'aria

  Qualità dell'aria Indice AQ Inquinante
Not available.

Profondità neve

Stazione Profondità Altitudine

Attività sismica

Città  Distanza Mag. Data & Ora
Minimo Magnitudo Mostrato è 2.5.

Temperature delle acque costiere

Località Temperatura

Stations

Stazioni meteo nelle vicinanze

Ubicazione della stazione Temp. Raffreddamento del vento Punto di rugiada Umidità Vento Precip. Alt. Aggiornato Tipo
                   

Watches & Warnings

There are currently no watches in effect.